createdAt,value
2022-10-20T00:00:59.100Z,65.84
2022-10-20T00:03:28.236Z,65.87
2022-10-20T00:05:56.165Z,66.54
2022-10-20T00:08:24.145Z,66.50
2022-10-20T00:10:57.244Z,66.87
2022-10-20T00:13:25.445Z,67.17
2022-10-20T00:15:55.040Z,66.93
2022-10-20T00:18:24.223Z,67.28
2022-10-20T00:20:52.834Z,67.36
2022-10-20T00:23:21.597Z,66.95
2022-10-20T00:25:49.512Z,67.39
2022-10-20T00:28:18.675Z,67.58
2022-10-20T00:30:46.482Z,67.97
2022-10-20T00:33:14.418Z,67.81
2022-10-20T00:35:42.291Z,68.07
2022-10-20T00:38:10.186Z,68.95
2022-10-20T00:40:38.119Z,67.83
2022-10-20T00:43:06.053Z,68.40
2022-10-20T00:45:35.455Z,67.47
2022-10-20T00:48:07.789Z,68.05
2022-10-20T00:50:41.575Z,67.86
2022-10-20T00:53:09.692Z,67.72
2022-10-20T00:55:41.903Z,67.99
2022-10-20T00:58:10.333Z,67.53
2022-10-20T01:00:42.354Z,67.72
2022-10-20T01:03:16.478Z,67.96
2022-10-20T01:05:44.529Z,68.04
2022-10-20T01:08:12.386Z,67.79
2022-10-20T01:10:47.823Z,68.09
2022-10-20T01:13:26.642Z,68.75
2022-10-20T01:16:04.741Z,68.10
2022-10-20T01:18:43.053Z,68.36
2022-10-20T01:21:27.957Z,68.60
2022-10-20T01:24:09.780Z,68.35
2022-10-20T01:27:12.950Z,68.43
2022-10-20T01:29:47.318Z,68.81
2022-10-20T01:32:23.331Z,68.76
2022-10-20T01:34:58.908Z,68.89
2022-10-20T01:37:48.607Z,68.67
2022-10-20T01:40:25.312Z,69.17
2022-10-20T01:42:55.198Z,68.79
2022-10-20T01:45:28.826Z,69.97
2022-10-20T01:47:59.565Z,69.70
2022-10-20T01:50:27.806Z,69.47
2022-10-20T01:52:57.382Z,69.37
2022-10-20T01:55:25.837Z,69.78
2022-10-20T01:58:10.190Z,69.26
2022-10-20T02:00:40.718Z,69.83
2022-10-20T02:03:23.989Z,69.85
2022-10-20T02:06:03.768Z,70.12
2022-10-20T02:08:38.528Z,69.79
2022-10-20T02:11:10.510Z,70.89
2022-10-20T02:13:40.674Z,70.45
2022-10-20T02:16:14.634Z,71.12
2022-10-20T02:18:44.983Z,70.29
2022-10-20T02:21:13.296Z,70.22
2022-10-20T02:23:45.738Z,71.41
2022-10-20T02:26:16.264Z,70.06
2022-10-20T02:28:48.488Z,70.16
2022-10-20T02:31:18.497Z,70.07
2022-10-20T02:33:48.120Z,70.78
2022-10-20T02:36:18.523Z,71.13
2022-10-20T02:38:46.811Z,70.32
2022-10-20T02:41:14.838Z,71.72
2022-10-20T02:43:42.673Z,70.56
2022-10-20T02:46:10.730Z,70.24
2022-10-20T02:48:40.066Z,70.58
2022-10-20T02:51:07.910Z,70.44
2022-10-20T02:53:35.818Z,71.17
2022-10-20T02:56:03.694Z,71.05
2022-10-20T02:58:31.556Z,71.18
2022-10-20T03:00:59.562Z,70.84
2022-10-20T03:03:27.556Z,70.81
2022-10-20T03:05:56.866Z,70.56
2022-10-20T03:08:24.896Z,71.36
2022-10-20T03:10:52.898Z,71.00
2022-10-20T03:13:20.824Z,71.20
2022-10-20T03:15:48.757Z,71.33
2022-10-20T03:18:16.554Z,71.67
2022-10-20T03:20:45.318Z,71.43
2022-10-20T03:23:17.673Z,71.77
2022-10-20T03:25:48.368Z,71.51
2022-10-20T03:28:16.751Z,71.01
2022-10-20T03:30:46.428Z,71.41
2022-10-20T03:33:14.332Z,71.42
2022-10-20T03:35:42.202Z,71.35
2022-10-20T03:38:10.038Z,72.16
2022-10-20T03:40:39.219Z,70.98
2022-10-20T03:43:07.171Z,71.32
2022-10-20T03:45:35.124Z,71.32
2022-10-20T03:48:02.999Z,71.52
2022-10-20T03:50:30.827Z,72.35
2022-10-20T03:52:58.608Z,71.71
2022-10-20T03:55:26.615Z,72.33
2022-10-20T03:57:55.950Z,71.72
2022-10-20T04:00:23.884Z,72.08
2022-10-20T04:02:52.020Z,72.21
2022-10-20T04:05:21.772Z,72.17
2022-10-20T04:07:49.921Z,72.62
2022-10-20T04:10:18.507Z,72.30
2022-10-20T04:12:46.505Z,72.52
2022-10-20T04:15:18.388Z,73.00
2022-10-20T04:17:46.342Z,73.19
2022-10-20T04:20:14.153Z,72.43
2022-10-20T04:22:42.012Z,73.25
2022-10-20T04:25:12.018Z,72.89
2022-10-20T04:27:40.059Z,73.00
2022-10-20T04:30:09.721Z,73.15
2022-10-20T04:32:38.984Z,74.05
2022-10-20T04:35:07.757Z,73.46
2022-10-20T04:37:35.980Z,73.45
2022-10-20T04:40:04.565Z,73.78
2022-10-20T04:42:32.870Z,73.42
2022-10-20T04:45:00.718Z,73.57
2022-10-20T04:47:32.990Z,73.43
2022-10-20T04:50:02.269Z,73.41
2022-10-20T04:52:30.256Z,73.61
2022-10-20T04:54:58.094Z,73.68
2022-10-20T04:57:26.231Z,73.75
2022-10-20T04:59:54.089Z,73.51
2022-10-20T05:02:22.010Z,74.00
2022-10-20T05:04:49.787Z,73.92
2022-10-20T05:07:19.018Z,73.98
2022-10-20T05:09:47.035Z,73.57
2022-10-20T05:14:47.683Z,74.80
2022-10-20T05:17:15.637Z,74.21
2022-10-20T05:19:43.461Z,73.91
2022-10-20T05:22:11.313Z,74.11
2022-10-20T05:24:40.525Z,73.46
2022-10-20T05:27:08.511Z,73.81
2022-10-20T05:29:36.461Z,74.45
2022-10-20T05:32:04.468Z,74.43
2022-10-20T05:34:32.290Z,74.40
2022-10-20T05:37:00.141Z,73.85
2022-10-20T05:39:28.075Z,73.83
2022-10-20T05:41:57.521Z,73.16
2022-10-20T05:44:25.488Z,73.72
2022-10-20T05:46:53.370Z,73.37
2022-10-20T05:49:23.366Z,72.58
2022-10-20T05:51:51.215Z,72.84
2022-10-20T05:54:19.154Z,73.23
2022-10-20T05:56:47.316Z,72.21
2022-10-20T05:59:16.620Z,72.63
2022-10-20T06:01:49.094Z,72.22
2022-10-20T06:04:18.960Z,72.71
2022-10-20T06:06:48.886Z,72.44
2022-10-20T06:09:17.652Z,72.88
2022-10-20T06:11:45.596Z,72.81
2022-10-20T06:14:13.483Z,72.58
2022-10-20T06:16:42.734Z,72.24
2022-10-20T06:19:11.734Z,72.28
2022-10-20T06:21:39.956Z,72.41
2022-10-20T06:24:08.093Z,72.54
2022-10-20T06:26:37.795Z,72.67
2022-10-20T06:29:07.379Z,72.17
2022-10-20T06:31:36.720Z,72.69
2022-10-20T06:34:07.772Z,72.18
2022-10-20T06:36:37.096Z,72.55
2022-10-20T06:39:07.275Z,72.75
2022-10-20T06:41:35.664Z,73.67
2022-10-20T06:44:04.065Z,73.02
2022-10-20T06:46:35.203Z,72.07
2022-10-20T06:49:04.529Z,72.86
2022-10-20T06:51:35.266Z,73.56
2022-10-20T06:54:03.433Z,73.01
2022-10-20T06:56:33.967Z,73.26
2022-10-20T06:59:02.972Z,73.46
2022-10-20T07:01:32.410Z,73.64
2022-10-20T07:04:01.782Z,72.85
2022-10-20T07:06:31.718Z,71.93
2022-10-20T07:09:03.916Z,71.97
2022-10-20T07:11:33.198Z,72.31
2022-10-20T07:14:02.036Z,72.70
2022-10-20T07:16:31.821Z,72.32
2022-10-20T07:19:00.689Z,71.92
2022-10-20T07:21:34.941Z,72.74
2022-10-20T07:24:07.943Z,72.75
2022-10-20T07:26:37.804Z,72.03
2022-10-20T07:29:06.439Z,70.99
2022-10-20T07:31:37.107Z,70.30
2022-10-20T07:34:12.909Z,70.46
2022-10-20T07:36:49.309Z,70.79
2022-10-20T07:39:18.682Z,70.47
2022-10-20T07:41:48.165Z,70.69
2022-10-20T07:44:17.014Z,70.59
2022-10-20T07:46:45.588Z,70.66
2022-10-20T07:52:01.602Z,70.24
2022-10-20T07:54:31.878Z,69.89
2022-10-20T07:56:59.862Z,69.92
2022-10-20T07:59:29.479Z,70.21
2022-10-20T08:01:59.689Z,69.36
2022-10-20T08:04:28.908Z,69.45
2022-10-20T08:06:56.949Z,69.42
2022-10-20T08:09:25.205Z,68.85
2022-10-20T08:11:55.809Z,69.62
2022-10-20T08:14:26.938Z,69.40
2022-10-20T08:17:04.621Z,69.12
2022-10-20T08:19:58.456Z,68.32
2022-10-20T08:22:26.394Z,67.78
2022-10-20T08:24:54.727Z,67.85
2022-10-20T08:27:23.986Z,67.24
2022-10-20T08:30:00.178Z,67.15
2022-10-20T08:32:34.551Z,65.87
2022-10-20T08:35:03.330Z,65.79
2022-10-20T08:37:31.324Z,65.22
2022-10-20T08:39:59.250Z,65.21
2022-10-20T08:42:28.717Z,64.31
2022-10-20T08:44:59.556Z,63.80
2022-10-20T08:47:33.437Z,64.43
2022-10-20T08:50:03.503Z,63.09
2022-10-20T08:52:31.356Z,63.23
2022-10-20T08:54:59.712Z,62.90
2022-10-20T08:57:34.529Z,62.58
2022-10-20T09:00:15.389Z,63.02
2022-10-20T09:02:43.825Z,63.02
2022-10-20T09:05:16.675Z,63.10
2022-10-20T09:07:49.836Z,62.30
2022-10-20T09:10:26.861Z,62.93
2022-10-20T09:12:56.657Z,61.98
2022-10-20T09:15:26.656Z,63.25
2022-10-20T09:17:58.318Z,62.02
2022-10-20T09:20:30.958Z,61.41
2022-10-20T09:23:01.329Z,60.85
2022-10-20T09:25:32.441Z,59.97
2022-10-20T09:28:01.653Z,59.34
2022-10-20T09:30:35.565Z,59.19
2022-10-20T09:33:22.206Z,58.68
2022-10-20T09:35:51.691Z,58.72
2022-10-20T09:38:25.073Z,58.80
2022-10-20T09:40:57.568Z,58.81
2022-10-20T09:43:27.788Z,58.55
2022-10-20T09:45:58.556Z,58.34
2022-10-20T09:48:30.298Z,58.24
2022-10-20T09:50:59.423Z,58.83
2022-10-20T09:53:31.872Z,57.87
2022-10-20T09:56:00.029Z,56.37
2022-10-20T09:58:33.895Z,55.60
2022-10-20T10:01:06.121Z,57.57
2022-10-20T10:03:40.529Z,57.98
2022-10-20T10:06:27.625Z,56.66
2022-10-20T10:08:57.007Z,56.67
2022-10-20T10:11:29.926Z,55.14
2022-10-20T10:13:59.898Z,56.28
2022-10-20T10:16:30.167Z,54.18
2022-10-20T10:19:01.912Z,53.72
2022-10-20T10:21:31.752Z,53.14
2022-10-20T10:24:02.238Z,52.38
2022-10-20T10:26:45.450Z,51.89
2022-10-20T10:29:26.204Z,52.27
2022-10-20T10:32:00.298Z,51.70
2022-10-20T10:34:43.639Z,51.21
2022-10-20T10:37:14.561Z,50.21
2022-10-20T10:39:43.339Z,50.48
2022-10-20T10:42:45.987Z,50.02
2022-10-20T10:45:20.430Z,49.90
2022-10-20T10:48:11.169Z,50.52
2022-10-20T10:50:45.532Z,51.03
2022-10-20T10:53:28.076Z,48.60
2022-10-20T10:56:05.374Z,48.66
2022-10-20T10:58:43.949Z,48.45
2022-10-20T11:01:42.440Z,47.90
2022-10-20T11:04:30.931Z,47.64
2022-10-20T11:07:07.553Z,48.28
2022-10-20T11:09:44.187Z,47.64
2022-10-20T11:12:30.644Z,46.63
2022-10-20T11:15:13.610Z,46.76
2022-10-20T11:17:54.440Z,46.76
2022-10-20T11:20:36.637Z,47.19
2022-10-20T11:26:13.568Z,45.95
2022-10-20T11:28:45.726Z,46.63
2022-10-20T11:31:23.796Z,45.71
2022-10-20T11:33:58.716Z,44.63
2022-10-20T11:36:32.755Z,44.54
2022-10-20T11:39:01.021Z,45.01
2022-10-20T11:41:34.808Z,45.54
2022-10-20T11:44:07.910Z,45.14
2022-10-20T11:46:40.082Z,43.90
2022-10-20T11:49:12.230Z,45.01
2022-10-20T11:52:12.886Z,43.12
2022-10-20T11:55:14.967Z,44.93
2022-10-20T11:58:05.386Z,44.34
2022-10-20T12:00:56.340Z,43.92
2022-10-20T12:04:00.147Z,43.69
2022-10-20T12:06:51.746Z,44.24
2022-10-20T12:09:33.635Z,44.46
2022-10-20T12:12:04.604Z,44.76
2022-10-20T12:14:39.008Z,45.98
2022-10-20T12:17:24.725Z,45.60
2022-10-20T12:19:53.501Z,46.32
2022-10-20T12:22:41.757Z,46.58
2022-10-20T12:25:37.855Z,45.68
2022-10-20T12:28:34.316Z,45.83
2022-10-20T12:31:03.736Z,45.95
2022-10-20T12:33:40.945Z,46.56
2022-10-20T12:36:27.968Z,46.41
2022-10-20T12:39:15.101Z,45.59
2022-10-20T12:41:47.567Z,46.68
2022-10-20T12:44:18.266Z,47.13
2022-10-20T12:46:56.588Z,46.71
2022-10-20T12:49:33.379Z,45.95
2022-10-20T12:52:03.747Z,45.88
2022-10-20T12:54:38.029Z,46.49
2022-10-20T12:57:26.359Z,47.03
2022-10-20T12:59:54.510Z,46.33
2022-10-20T13:02:52.441Z,46.60
2022-10-20T13:05:45.383Z,46.76
2022-10-20T13:08:31.795Z,46.96
2022-10-20T13:11:42.357Z,46.73
2022-10-20T13:14:28.929Z,46.92
2022-10-20T13:17:06.665Z,47.10
2022-10-20T13:19:44.605Z,46.45
2022-10-20T13:22:46.796Z,46.38
2022-10-20T13:25:27.477Z,46.61
2022-10-20T13:28:16.022Z,47.09
2022-10-20T13:31:00.737Z,46.81
2022-10-20T13:33:58.820Z,47.44
2022-10-20T13:36:35.346Z,47.42
2022-10-20T13:39:12.120Z,47.97
2022-10-20T13:41:48.075Z,47.49
2022-10-20T13:44:31.799Z,47.08
2022-10-20T13:47:09.555Z,46.49
2022-10-20T13:49:53.723Z,46.59
2022-10-20T13:52:22.545Z,47.16
2022-10-20T13:54:52.628Z,47.10
2022-10-20T13:57:28.953Z,47.92
2022-10-20T14:00:00.355Z,47.27
2022-10-20T14:02:31.353Z,47.75
2022-10-20T14:05:08.635Z,47.60
2022-10-20T14:07:38.708Z,47.68
2022-10-20T14:10:07.872Z,48.18
2022-10-20T14:12:36.501Z,47.79
2022-10-20T14:15:09.009Z,47.19
2022-10-20T14:17:40.742Z,47.27
2022-10-20T14:20:10.684Z,47.94
2022-10-20T14:22:44.916Z,47.32
2022-10-20T14:25:13.519Z,47.32
2022-10-20T14:27:41.955Z,47.54
2022-10-20T14:30:16.633Z,47.70
2022-10-20T14:32:46.149Z,47.59
2022-10-20T14:35:27.078Z,47.81
2022-10-20T14:37:59.615Z,47.93
2022-10-20T14:40:30.169Z,48.14
2022-10-20T14:43:00.966Z,48.21
2022-10-20T14:48:03.547Z,47.58
2022-10-20T14:50:36.405Z,47.85
2022-10-20T14:53:34.684Z,47.89
2022-10-20T14:56:04.043Z,48.40
2022-10-20T14:58:37.804Z,48.53
2022-10-20T15:01:25.931Z,48.13
2022-10-20T15:04:16.719Z,48.76
2022-10-20T15:06:45.324Z,48.58
2022-10-20T15:09:26.484Z,49.09
2022-10-20T15:11:54.752Z,49.06
2022-10-20T15:14:22.833Z,48.99
2022-10-20T15:16:52.449Z,48.87
2022-10-20T15:19:29.273Z,48.85
2022-10-20T15:24:44.648Z,49.06
2022-10-20T15:27:16.190Z,49.04
2022-10-20T15:29:49.798Z,48.67
2022-10-20T15:32:19.708Z,48.53
2022-10-20T15:34:47.502Z,49.27
2022-10-20T15:37:15.660Z,49.68
2022-10-20T15:39:44.734Z,49.99
2022-10-20T15:42:13.018Z,50.04
2022-10-20T15:44:40.877Z,49.82
2022-10-20T15:47:09.999Z,50.72
2022-10-20T15:49:39.175Z,51.04
2022-10-20T15:52:07.197Z,51.59
2022-10-20T15:54:35.005Z,51.45
2022-10-20T15:57:02.825Z,51.79
2022-10-20T15:59:30.695Z,52.20
2022-10-20T16:01:58.526Z,52.68
2022-10-20T16:04:27.156Z,52.50
2022-10-20T16:06:59.044Z,52.96
2022-10-20T16:09:28.292Z,53.84
2022-10-20T16:11:56.235Z,53.83
2022-10-20T16:14:24.132Z,54.35
2022-10-20T16:16:51.974Z,54.24
2022-10-20T16:19:20.382Z,55.09
2022-10-20T16:21:48.318Z,54.93
2022-10-20T16:24:17.502Z,55.27
2022-10-20T16:26:45.305Z,55.32
2022-10-20T16:29:13.115Z,55.63
2022-10-20T16:31:40.940Z,56.01
2022-10-20T16:34:08.764Z,55.93
2022-10-20T16:36:36.581Z,56.67
2022-10-20T16:39:04.424Z,56.63
2022-10-20T16:41:33.635Z,56.92
2022-10-20T16:44:01.523Z,57.03
2022-10-20T16:46:29.502Z,57.74
2022-10-20T16:48:57.454Z,57.33
2022-10-20T16:51:25.625Z,57.78
2022-10-20T16:53:57.275Z,57.97
2022-10-20T16:56:27.549Z,58.15
2022-10-20T16:58:57.604Z,58.92
2022-10-20T17:01:25.648Z,58.56
2022-10-20T17:03:54.701Z,58.70
2022-10-20T17:06:25.082Z,59.40
2022-10-20T17:08:53.544Z,59.32
2022-10-20T17:11:23.536Z,59.60
2022-10-20T17:13:52.130Z,59.80
2022-10-20T17:16:26.160Z,60.52
2022-10-20T17:18:57.059Z,59.95
2022-10-20T17:21:25.635Z,60.67
2022-10-20T17:23:53.531Z,61.18
2022-10-20T17:26:23.530Z,60.72
2022-10-20T17:28:54.245Z,60.94
2022-10-20T17:31:23.661Z,60.56
2022-10-20T17:33:52.164Z,61.72
2022-10-20T17:36:25.807Z,61.92
2022-10-20T17:38:58.343Z,62.04
2022-10-20T17:41:26.745Z,62.75
2022-10-20T17:43:54.611Z,62.37
2022-10-20T17:46:23.840Z,62.69
2022-10-20T17:48:51.623Z,62.99
2022-10-20T17:51:21.321Z,62.88
2022-10-20T17:53:51.087Z,63.22
2022-10-20T17:56:21.273Z,62.95
2022-10-20T17:58:50.921Z,63.15
2022-10-20T18:01:21.162Z,63.53
2022-10-20T18:03:55.803Z,63.87
2022-10-20T18:06:27.070Z,63.43
2022-10-20T18:08:58.435Z,63.21
2022-10-20T18:11:28.703Z,63.20
2022-10-20T18:13:59.396Z,63.53
2022-10-20T18:16:29.407Z,63.17
2022-10-20T18:18:59.525Z,64.35
2022-10-20T18:21:28.934Z,64.00
2022-10-20T18:23:57.449Z,63.44
2022-10-20T18:26:26.231Z,63.89
2022-10-20T18:28:54.071Z,63.99
2022-10-20T18:31:24.344Z,64.63
2022-10-20T18:33:57.193Z,64.74
2022-10-20T18:36:27.359Z,64.41
2022-10-20T18:38:55.517Z,64.47
2022-10-20T18:41:25.507Z,65.37
2022-10-20T18:43:57.820Z,64.20
2022-10-20T18:46:26.369Z,64.53
2022-10-20T18:48:54.353Z,64.19
2022-10-20T18:51:22.438Z,64.81
2022-10-20T18:53:54.709Z,64.31
2022-10-20T18:56:24.168Z,63.57
2022-10-20T18:58:53.859Z,63.93
2022-10-20T19:01:23.828Z,64.00
2022-10-20T19:03:54.608Z,64.44
2022-10-20T19:06:24.833Z,63.88
2022-10-20T19:08:56.574Z,64.51
2022-10-20T19:11:26.728Z,64.44
2022-10-20T19:13:55.148Z,64.01
2022-10-20T19:16:25.844Z,64.14
2022-10-20T19:18:55.518Z,64.94
2022-10-20T19:21:24.433Z,64.23
2022-10-20T19:23:57.801Z,64.38
2022-10-20T19:26:27.908Z,63.76
2022-10-20T19:28:59.557Z,63.22
2022-10-20T19:31:30.769Z,64.17
2022-10-20T19:34:01.004Z,63.88
2022-10-20T19:36:29.817Z,63.62
2022-10-20T19:38:59.123Z,64.59
2022-10-20T19:41:27.589Z,63.70
2022-10-20T19:43:55.846Z,63.59
2022-10-20T19:46:24.354Z,63.80
2022-10-20T19:48:52.762Z,64.27
2022-10-20T19:51:22.966Z,63.64
2022-10-20T19:53:51.012Z,64.39
2022-10-20T19:56:20.168Z,64.53
2022-10-20T19:58:48.975Z,64.48
2022-10-20T20:01:17.242Z,65.05
2022-10-20T20:03:45.566Z,65.49
2022-10-20T20:06:16.551Z,66.16
2022-10-20T20:08:45.596Z,66.06
2022-10-20T20:11:22.756Z,65.00
2022-10-20T20:13:53.618Z,66.08
2022-10-20T20:16:22.206Z,66.01
2022-10-20T20:18:50.331Z,65.23
2022-10-20T20:21:18.966Z,65.84
2022-10-20T20:23:59.027Z,65.82
2022-10-20T20:26:27.925Z,65.97
2022-10-20T20:28:57.392Z,66.01
2022-10-20T20:31:25.931Z,66.31
2022-10-20T20:33:54.076Z,66.21
2022-10-20T20:36:22.529Z,66.74
2022-10-20T20:38:52.607Z,66.06
2022-10-20T20:41:24.514Z,66.53
2022-10-20T20:43:52.329Z,65.92
2022-10-20T20:46:23.803Z,66.45
2022-10-20T20:48:51.683Z,66.26
2022-10-20T20:51:20.495Z,66.31
2022-10-20T20:53:48.557Z,65.57
2022-10-20T20:56:21.689Z,65.49
2022-10-20T20:58:54.965Z,64.86
2022-10-20T21:01:27.318Z,64.68
2022-10-20T21:03:56.117Z,64.91
2022-10-20T21:06:33.083Z,65.72
2022-10-20T21:09:02.482Z,65.28
2022-10-20T21:11:30.538Z,65.04
2022-10-20T21:13:59.862Z,65.33
2022-10-20T21:16:30.669Z,65.24
2022-10-20T21:19:00.709Z,65.85
2022-10-20T21:21:30.334Z,66.53
2022-10-20T21:23:59.085Z,65.89
2022-10-20T21:26:28.025Z,65.40
2022-10-20T21:28:56.037Z,66.02
2022-10-20T21:31:26.284Z,64.83
2022-10-20T21:33:57.152Z,65.28
2022-10-20T21:36:26.302Z,64.96
2022-10-20T21:38:54.124Z,65.13
2022-10-20T21:41:23.583Z,64.92
2022-10-20T21:43:53.014Z,65.21
2022-10-20T21:46:22.893Z,64.98
2022-10-20T21:48:52.710Z,65.37
2022-10-20T21:51:23.803Z,65.14
2022-10-20T21:53:55.653Z,65.14
2022-10-20T21:56:24.014Z,64.50
2022-10-20T21:58:52.460Z,64.83
2022-10-20T22:01:22.516Z,64.07
2022-10-20T22:03:51.530Z,63.98
2022-10-20T22:06:24.317Z,63.95
2022-10-20T22:08:54.625Z,63.61
2022-10-20T22:11:24.691Z,63.61
2022-10-20T22:13:52.785Z,63.64
2022-10-20T22:16:22.386Z,63.70
2022-10-20T22:18:54.699Z,63.20
2022-10-20T22:21:24.003Z,63.89
2022-10-20T22:23:54.583Z,63.88
2022-10-20T22:26:23.313Z,63.70
2022-10-20T22:28:51.847Z,64.90
2022-10-20T22:31:19.823Z,66.80
2022-10-20T22:33:47.786Z,67.02
2022-10-20T22:36:15.631Z,68.94
2022-10-20T22:38:44.844Z,69.70
2022-10-20T22:41:13.487Z,71.60
2022-10-20T22:43:41.754Z,71.57
2022-10-20T22:46:10.308Z,71.56
2022-10-20T22:48:38.500Z,72.58
2022-10-20T22:51:07.066Z,73.01
2022-10-20T22:53:35.083Z,73.97
2022-10-20T22:56:10.229Z,73.77
2022-10-20T22:58:39.224Z,73.91
2022-10-20T23:01:08.445Z,73.79
2022-10-20T23:03:36.384Z,75.12
2022-10-20T23:06:08.203Z,74.99
2022-10-20T23:08:40.056Z,73.14
2022-10-20T23:11:09.294Z,74.33
2022-10-20T23:13:37.419Z,74.32
2022-10-20T23:16:07.077Z,74.27
2022-10-20T23:18:35.353Z,75.57
2022-10-20T23:21:03.625Z,75.66
2022-10-20T23:23:32.364Z,76.02
2022-10-20T23:26:03.700Z,75.93
2022-10-20T23:28:34.242Z,76.10
2022-10-20T23:31:11.019Z,75.40
2022-10-20T23:33:39.666Z,77.71
2022-10-20T23:36:08.244Z,76.49
2022-10-20T23:38:36.240Z,76.50
2022-10-20T23:41:04.326Z,76.80
2022-10-20T23:43:34.041Z,77.59
2022-10-20T23:46:02.529Z,77.18
2022-10-20T23:48:30.524Z,76.30
2022-10-20T23:50:58.640Z,77.57
2022-10-20T23:53:26.626Z,77.10
2022-10-20T23:55:54.597Z,76.38
2022-10-20T23:58:23.210Z,77.55
